createdAt,value
2022-10-10T00:01:36.086Z,101412.31
2022-10-10T00:04:05.748Z,101406.22
2022-10-10T00:06:34.128Z,101410.59
2022-10-10T00:09:03.055Z,101399.28
2022-10-10T00:11:31.185Z,101400.19
2022-10-10T00:13:58.638Z,101392.34
2022-10-10T00:16:26.187Z,101401.09
2022-10-10T00:18:53.857Z,101402.00
2022-10-10T00:21:21.255Z,101405.47
2022-10-10T00:23:48.718Z,101399.38
2022-10-10T00:26:19.276Z,101402.91
2022-10-10T00:28:47.893Z,101391.56
2022-10-10T00:31:16.235Z,101395.09
2022-10-10T00:33:44.083Z,101388.09
2022-10-10T00:36:11.629Z,101393.38
2022-10-10T00:38:39.000Z,101388.13
2022-10-10T00:41:06.947Z,101389.00
2022-10-10T00:43:35.103Z,101377.69
2022-10-10T00:46:02.655Z,101388.19
2022-10-10T00:48:35.203Z,101385.56
2022-10-10T00:51:11.397Z,101383.84
2022-10-10T00:53:46.060Z,101383.84
2022-10-10T00:56:19.246Z,101377.75
2022-10-10T00:58:53.258Z,101383.88
2022-10-10T01:01:21.016Z,101383.00
2022-10-10T01:03:49.274Z,101377.78
2022-10-10T01:06:17.062Z,101375.19
2022-10-10T01:08:44.623Z,101375.19
2022-10-10T01:11:26.869Z,101365.59
2022-10-10T01:14:47.507Z,101366.47
2022-10-10T01:17:33.806Z,101356.06
2022-10-10T01:20:41.916Z,101361.28
2022-10-10T01:24:07.497Z,101358.69
2022-10-10T01:26:47.983Z,101363.09
2022-10-10T01:29:31.149Z,101360.47
2022-10-10T01:32:33.327Z,101345.69
2022-10-10T01:35:52.157Z,101358.78
2022-10-10T01:38:32.400Z,101356.19
2022-10-10T01:41:22.931Z,101352.72
2022-10-10T01:43:56.143Z,101343.16
2022-10-10T01:46:24.865Z,101349.25
2022-10-10T01:48:57.658Z,101341.41
2022-10-10T01:51:57.073Z,101343.16
2022-10-10T01:54:34.286Z,101342.28
2022-10-10T01:57:26.335Z,101343.16
2022-10-10T02:00:00.932Z,101336.25
2022-10-10T02:02:55.529Z,101333.63
2022-10-10T02:05:39.391Z,101324.03
2022-10-10T02:08:26.501Z,101329.28
2022-10-10T02:11:00.721Z,101326.69
2022-10-10T02:13:39.108Z,101316.22
2022-10-10T02:16:19.451Z,101310.13
2022-10-10T02:18:50.784Z,101312.75
2022-10-10T02:21:19.843Z,101313.63
2022-10-10T02:23:50.893Z,101308.41
2022-10-10T02:26:21.754Z,101311.06
2022-10-10T02:29:15.166Z,101304.97
2022-10-10T02:32:05.670Z,101298.88
2022-10-10T02:34:44.643Z,101301.53
2022-10-10T02:37:16.174Z,101303.28
2022-10-10T02:39:51.814Z,101310.28
2022-10-10T02:42:23.915Z,101308.53
2022-10-10T02:44:52.268Z,101302.44
2022-10-10T02:47:19.699Z,101304.19
2022-10-10T02:49:47.989Z,101293.72
2022-10-10T02:52:17.554Z,101300.69
2022-10-10T02:54:45.094Z,101299.81
2022-10-10T02:57:12.608Z,101286.75
2022-10-10T02:59:40.271Z,101291.09
2022-10-10T03:02:08.121Z,101278.03
2022-10-10T03:04:36.698Z,101281.50
2022-10-10T03:07:05.273Z,101280.66
2022-10-10T03:09:33.704Z,101275.41
2022-10-10T03:12:01.306Z,101273.69
2022-10-10T03:14:28.778Z,101278.94
2022-10-10T03:16:56.244Z,101278.06
2022-10-10T03:19:23.763Z,101273.69
2022-10-10T03:21:51.152Z,101275.47
2022-10-10T03:24:18.732Z,101269.38
2022-10-10T03:26:47.200Z,101272.84
2022-10-10T03:29:15.730Z,101266.75
2022-10-10T03:31:43.760Z,101265.00
2022-10-10T03:34:11.285Z,101265.03
2022-10-10T03:36:38.797Z,101269.38
2022-10-10T03:39:07.838Z,101269.41
2022-10-10T03:41:36.453Z,101271.16
2022-10-10T03:44:04.066Z,101270.25
2022-10-10T03:46:31.590Z,101273.78
2022-10-10T03:48:59.013Z,101264.19
2022-10-10T03:51:27.609Z,101264.22
2022-10-10T03:53:55.050Z,101262.44
2022-10-10T03:56:22.678Z,101267.69
2022-10-10T03:58:50.140Z,101265.06
2022-10-10T04:01:17.623Z,101265.97
2022-10-10T04:03:48.631Z,101265.97
2022-10-10T04:06:19.487Z,101264.25
2022-10-10T04:08:47.499Z,101269.44
2022-10-10T04:11:14.990Z,101263.34
2022-10-10T04:13:42.432Z,101268.56
2022-10-10T04:16:09.871Z,101272.91
2022-10-10T04:18:37.343Z,101265.06
2022-10-10T04:21:06.267Z,101258.09
2022-10-10T04:23:33.708Z,101266.78
2022-10-10T04:26:01.703Z,101266.75
2022-10-10T04:28:29.213Z,101258.91
2022-10-10T04:30:57.798Z,101266.72
2022-10-10T04:33:25.610Z,101261.47
2022-10-10T04:35:53.008Z,101252.75
2022-10-10T04:38:21.311Z,101258.81
2022-10-10T04:40:50.813Z,101256.22
2022-10-10T04:43:19.231Z,101254.50
2022-10-10T04:45:47.893Z,101257.97
2022-10-10T04:48:15.296Z,101260.53
2022-10-10T04:50:42.752Z,101252.69
2022-10-10T04:53:11.769Z,101254.44
2022-10-10T04:55:39.153Z,101254.44
2022-10-10T04:58:06.556Z,101254.44
2022-10-10T05:00:34.062Z,101246.59
2022-10-10T05:03:01.552Z,101257.94
2022-10-10T05:05:29.155Z,101258.81
2022-10-10T05:07:56.611Z,101250.97
2022-10-10T05:10:25.494Z,101257.06
2022-10-10T05:12:53.316Z,101257.06
2022-10-10T05:15:24.821Z,101259.72
2022-10-10T05:17:53.373Z,101254.50
2022-10-10T05:20:22.069Z,101256.25
2022-10-10T05:22:49.831Z,101251.91
2022-10-10T05:25:17.505Z,101257.16
2022-10-10T05:27:45.106Z,101253.66
2022-10-10T05:30:13.841Z,101246.69
2022-10-10T05:32:42.314Z,101257.16
2022-10-10T05:35:10.125Z,101252.81
2022-10-10T05:37:38.052Z,101257.16
2022-10-10T05:40:06.173Z,101260.66
2022-10-10T05:42:39.458Z,101251.91
2022-10-10T05:45:07.530Z,101253.66
2022-10-10T05:47:34.920Z,101251.91
2022-10-10T05:50:02.386Z,101254.53
2022-10-10T05:52:29.868Z,101255.41
2022-10-10T05:54:57.263Z,101257.16
2022-10-10T05:57:26.913Z,101258.03
2022-10-10T05:59:54.945Z,101258.03
2022-10-10T06:02:22.520Z,101252.81
2022-10-10T06:04:50.938Z,101253.69
2022-10-10T06:07:20.425Z,101258.91
2022-10-10T06:09:47.985Z,101246.69
2022-10-10T06:12:20.008Z,101251.91
2022-10-10T06:14:47.398Z,101246.69
2022-10-10T06:17:15.325Z,101255.41
2022-10-10T06:19:43.240Z,101257.13
2022-10-10T06:22:12.801Z,101257.97
2022-10-10T06:24:40.277Z,101257.09
2022-10-10T06:27:09.143Z,101264.06
2022-10-10T06:29:36.500Z,101267.53
2022-10-10T06:32:03.898Z,101271.00
2022-10-10T06:34:31.410Z,101274.44
2022-10-10T06:36:58.924Z,101272.69
2022-10-10T06:39:26.708Z,101277.88
2022-10-10T06:41:54.329Z,101267.34
2022-10-10T06:44:21.824Z,101274.28
2022-10-10T06:46:49.244Z,101275.09
2022-10-10T06:49:16.718Z,101275.06
2022-10-10T06:51:44.219Z,101283.72
2022-10-10T06:54:12.090Z,101282.81
2022-10-10T06:56:39.604Z,101281.88
2022-10-10T06:59:07.310Z,101283.59
2022-10-10T07:01:34.818Z,101280.91
2022-10-10T07:04:02.269Z,101276.47
2022-10-10T07:06:33.974Z,101280.75
2022-10-10T07:09:02.485Z,101279.81
2022-10-10T07:11:30.213Z,101284.09
2022-10-10T07:13:57.738Z,101279.63
2022-10-10T07:16:25.104Z,101286.44
2022-10-10T07:18:52.582Z,101282.84
2022-10-10T07:21:20.071Z,101282.69
2022-10-10T07:23:47.434Z,101278.16
2022-10-10T07:26:22.058Z,101289.34
2022-10-10T07:28:49.898Z,101290.06
2022-10-10T07:31:17.387Z,101291.63
2022-10-10T07:33:50.709Z,101287.94
2022-10-10T07:36:18.974Z,101295.66
2022-10-10T07:38:51.938Z,101295.47
2022-10-10T07:41:20.861Z,101293.53
2022-10-10T07:43:53.898Z,101296.84
2022-10-10T07:46:22.077Z,101294.91
2022-10-10T07:48:49.658Z,101306.91
2022-10-10T07:51:17.823Z,101308.47
2022-10-10T07:53:45.383Z,101314.34
2022-10-10T07:56:12.832Z,101308.03
2022-10-10T07:58:40.562Z,101315.66
2022-10-10T08:01:12.085Z,101309.19
2022-10-10T08:03:40.949Z,101313.28
2022-10-10T08:06:13.146Z,101313.81
2022-10-10T08:08:50.355Z,101318.81
2022-10-10T08:11:21.921Z,101323.72
2022-10-10T08:13:50.520Z,101326.00
2022-10-10T08:16:18.585Z,101321.25
2022-10-10T08:18:46.530Z,101315.63
2022-10-10T08:21:16.138Z,101313.59
2022-10-10T08:23:43.951Z,101323.72
2022-10-10T08:26:14.735Z,101319.75
2022-10-10T08:28:42.956Z,101325.44
2022-10-10T08:31:15.269Z,101328.53
2022-10-10T08:33:45.992Z,101328.97
2022-10-10T08:36:21.281Z,101337.25
2022-10-10T08:38:48.880Z,101324.59
2022-10-10T08:41:54.382Z,101320.59
2022-10-10T08:44:32.183Z,101316.81
2022-10-10T08:47:10.670Z,101328.84
2022-10-10T08:49:58.944Z,101324.94
2022-10-10T08:53:06.682Z,101326.03
2022-10-10T08:55:39.489Z,101320.28
2022-10-10T08:58:23.936Z,101322.44
2022-10-10T09:01:08.118Z,101330.06
2022-10-10T09:03:46.666Z,101321.78
2022-10-10T09:06:54.180Z,101326.81
2022-10-10T09:09:48.465Z,101322.31
2022-10-10T09:12:40.868Z,101321.09
2022-10-10T09:15:38.390Z,101325.88
2022-10-10T09:18:53.846Z,101327.13
2022-10-10T09:21:31.136Z,101336.53
2022-10-10T09:24:08.540Z,101344.97
2022-10-10T09:26:47.942Z,101335.63
2022-10-10T09:29:53.503Z,101343.06
2022-10-10T09:32:45.612Z,101352.28
2022-10-10T09:35:27.894Z,101345.75
2022-10-10T09:38:11.163Z,101344.56
2022-10-10T09:40:55.675Z,101344.22
2022-10-10T09:43:23.585Z,101342.13
2022-10-10T09:45:56.363Z,101347.16
2022-10-10T09:48:40.402Z,101349.56
2022-10-10T09:51:17.022Z,101352.09
2022-10-10T09:53:47.275Z,101355.47
2022-10-10T09:56:43.611Z,101355.06
2022-10-10T09:59:47.631Z,101362.72
2022-10-10T10:02:26.199Z,101374.47
2022-10-10T10:04:55.315Z,101369.44
2022-10-10T10:07:33.146Z,101371.66
2022-10-10T10:10:12.013Z,101373.94
2022-10-10T10:12:43.156Z,101370.13
2022-10-10T10:15:18.189Z,101373.28
2022-10-10T10:17:45.825Z,101361.47
2022-10-10T10:20:35.897Z,101361.97
2022-10-10T10:23:03.385Z,101368.88
2022-10-10T10:25:38.511Z,101368.75
2022-10-10T10:28:11.870Z,101368.69
2022-10-10T10:30:41.816Z,101361.59
2022-10-10T10:33:24.037Z,101366.75
2022-10-10T10:36:31.997Z,101370.19
2022-10-10T10:39:21.790Z,101374.44
2022-10-10T10:42:02.859Z,101369.03
2022-10-10T10:44:51.832Z,101372.31
2022-10-10T10:47:58.005Z,101372.97
2022-10-10T10:50:39.270Z,101370.91
2022-10-10T10:53:47.618Z,101375.00
2022-10-10T10:57:02.139Z,101367.53
2022-10-10T11:00:22.025Z,101379.59
2022-10-10T11:02:59.321Z,101373.69
2022-10-10T11:05:41.754Z,101370.00
2022-10-10T11:08:30.370Z,101389.72
2022-10-10T11:11:05.063Z,101388.34
2022-10-10T11:13:47.066Z,101393.16
2022-10-10T11:16:55.188Z,101394.28
2022-10-10T11:19:34.532Z,101401.78
2022-10-10T11:22:11.528Z,101402.44
2022-10-10T11:24:53.958Z,101406.91
2022-10-10T11:27:41.666Z,101406.19
2022-10-10T11:30:13.291Z,101399.22
2022-10-10T11:32:56.471Z,101402.66
2022-10-10T11:35:53.332Z,101402.34
2022-10-10T11:39:07.616Z,101402.19
2022-10-10T11:42:05.962Z,101399.28
2022-10-10T11:44:46.300Z,101405.31
2022-10-10T11:47:42.339Z,101406.63
2022-10-10T11:50:28.159Z,101406.16
2022-10-10T11:53:33.482Z,101401.22
2022-10-10T11:56:45.523Z,101403.25
2022-10-10T11:59:21.837Z,101403.25
2022-10-10T12:04:38.512Z,101401.75
2022-10-10T12:07:17.687Z,101396.00
2022-10-10T12:10:02.263Z,101395.53
2022-10-10T12:12:47.311Z,101397.59
2022-10-10T12:15:33.616Z,101402.31
2022-10-10T12:18:03.840Z,101403.28
2022-10-10T12:20:36.969Z,101415.84
2022-10-10T12:23:29.626Z,101408.78
2022-10-10T12:25:59.373Z,101411.50
2022-10-10T12:28:56.250Z,101401.63
2022-10-10T12:31:42.906Z,101409.41
2022-10-10T12:34:15.351Z,101410.06
2022-10-10T12:36:57.037Z,101413.94
2022-10-10T12:39:32.545Z,101410.50
2022-10-10T12:41:59.956Z,101420.50
2022-10-10T12:44:45.974Z,101418.94
2022-10-10T12:47:16.023Z,101422.03
2022-10-10T12:50:01.278Z,101424.69
2022-10-10T12:52:52.573Z,101422.88
2022-10-10T12:55:32.482Z,101424.69
2022-10-10T12:58:04.079Z,101425.63
2022-10-10T13:00:46.742Z,101423.91
2022-10-10T13:03:40.129Z,101428.63
2022-10-10T13:06:43.443Z,101432.41
2022-10-10T13:09:25.020Z,101437.06
2022-10-10T13:11:59.352Z,101443.72
2022-10-10T13:14:38.825Z,101442.28
2022-10-10T13:17:27.180Z,101446.81
2022-10-10T13:19:57.966Z,101453.16
2022-10-10T13:22:27.116Z,101454.25
2022-10-10T13:24:55.412Z,101456.13
2022-10-10T13:27:28.218Z,101449.41
2022-10-10T13:29:56.066Z,101457.72
2022-10-10T13:32:35.258Z,101463.03
2022-10-10T13:35:13.261Z,101463.44
2022-10-10T13:37:43.839Z,101470.03
2022-10-10T13:40:17.406Z,101476.59
2022-10-10T13:42:51.136Z,101478.78
2022-10-10T13:45:30.110Z,101486.47
2022-10-10T13:48:02.324Z,101491.38
2022-10-10T13:50:42.620Z,101498.88
2022-10-10T13:53:28.795Z,101512.72
2022-10-10T13:56:35.555Z,101514.00
2022-10-10T13:59:06.147Z,101508.22
2022-10-10T14:01:49.760Z,101524.53
2022-10-10T14:04:38.270Z,101525.69
2022-10-10T14:10:04.865Z,101533.38
2022-10-10T14:12:42.477Z,101523.94
2022-10-10T14:15:40.923Z,101535.66
2022-10-10T14:18:25.973Z,101543.91
2022-10-10T14:20:53.640Z,101545.06
2022-10-10T14:23:22.346Z,101548.78
2022-10-10T14:25:50.416Z,101559.59
2022-10-10T14:28:23.814Z,101563.34
2022-10-10T14:30:52.077Z,101566.34
2022-10-10T14:33:20.707Z,101571.94
2022-10-10T14:35:51.758Z,101577.63
2022-10-10T14:38:19.740Z,101580.59
2022-10-10T14:40:50.025Z,101585.28
2022-10-10T14:43:20.567Z,101586.47
2022-10-10T14:45:51.107Z,101589.41
2022-10-10T14:48:19.282Z,101599.38
2022-10-10T14:50:49.228Z,101604.09
2022-10-10T14:53:16.945Z,101608.84
2022-10-10T14:55:45.772Z,101614.34
2022-10-10T14:58:21.922Z,101619.84
2022-10-10T15:00:51.967Z,101626.34
2022-10-10T15:03:19.558Z,101625.78
2022-10-10T15:05:48.499Z,101635.03
2022-10-10T15:08:18.522Z,101646.09
2022-10-10T15:10:47.428Z,101649.28
2022-10-10T15:13:16.732Z,101646.97
2022-10-10T15:15:44.190Z,101653.63
2022-10-10T15:18:39.593Z,101675.13
2022-10-10T15:21:01.550Z,101675.69
2022-10-10T15:23:29.169Z,101685.97
2022-10-10T15:26:00.482Z,101690.16
2022-10-10T15:28:28.596Z,101685.50
2022-10-10T15:31:00.679Z,101691.38
2022-10-10T15:33:28.311Z,101701.50
2022-10-10T15:36:09.627Z,101703.59
2022-10-10T15:38:38.596Z,101709.19
2022-10-10T15:41:09.722Z,101716.53
2022-10-10T15:43:54.469Z,101728.25
2022-10-10T15:46:28.751Z,101730.28
2022-10-10T15:49:03.258Z,101742.81
2022-10-10T15:51:31.034Z,101746.56
2022-10-10T15:54:00.120Z,101742.34
2022-10-10T15:56:30.516Z,101749.50
2022-10-10T15:59:00.733Z,101754.84
2022-10-10T16:01:30.254Z,101760.19
2022-10-10T16:03:58.445Z,101762.91
2022-10-10T16:06:26.172Z,101765.63
2022-10-10T16:09:09.930Z,101760.41
2022-10-10T16:11:41.833Z,101767.53
2022-10-10T16:14:09.691Z,101772.84
2022-10-10T16:16:37.281Z,101774.66
2022-10-10T16:19:04.834Z,101775.63
2022-10-10T16:21:33.452Z,101789.69
2022-10-10T16:24:01.300Z,101792.31
2022-10-10T16:26:33.382Z,101797.63
2022-10-10T16:29:01.830Z,101791.53
2022-10-10T16:31:30.419Z,101796.03
2022-10-10T16:33:59.413Z,101802.19
2022-10-10T16:36:31.375Z,101809.16
2022-10-10T16:39:00.051Z,101803.91
2022-10-10T16:41:48.734Z,101810.97
2022-10-10T16:44:17.650Z,101819.84
2022-10-10T16:46:45.362Z,101829.59
2022-10-10T16:49:16.554Z,101834.06
2022-10-10T16:51:44.111Z,101835.84
2022-10-10T16:54:11.669Z,101852.63
2022-10-10T16:56:39.029Z,101850.00
2022-10-10T16:59:06.400Z,101863.22
2022-10-10T17:01:34.870Z,101861.44
2022-10-10T17:04:03.052Z,101854.38
2022-10-10T17:06:37.216Z,101871.06
2022-10-10T17:09:07.790Z,101875.47
2022-10-10T17:11:35.341Z,101883.44
2022-10-10T17:14:03.539Z,101879.06
2022-10-10T17:19:18.454Z,101890.66
2022-10-10T17:21:45.876Z,101901.31
2022-10-10T17:24:13.327Z,101909.34
2022-10-10T17:26:40.783Z,101912.97
2022-10-10T17:29:08.174Z,101917.47
2022-10-10T17:31:35.635Z,101921.06
2022-10-10T17:34:03.173Z,101926.44
2022-10-10T17:36:31.443Z,101930.06
2022-10-10T17:39:02.010Z,101942.44
2022-10-10T17:41:29.948Z,101940.81
2022-10-10T17:43:57.502Z,101949.69
2022-10-10T17:46:34.815Z,101954.16
2022-10-10T17:49:05.529Z,101953.44
2022-10-10T17:51:35.175Z,101951.75
2022-10-10T17:54:05.844Z,101958.84
2022-10-10T17:56:34.779Z,101969.53
2022-10-10T17:59:06.304Z,101977.53
2022-10-10T18:01:35.983Z,101980.25
2022-10-10T18:04:04.049Z,101984.72
2022-10-10T18:06:32.970Z,101987.47
2022-10-10T18:09:01.001Z,101998.06
2022-10-10T18:11:32.188Z,101985.84
2022-10-10T18:14:02.793Z,101993.00
2022-10-10T18:16:33.944Z,102000.09
2022-10-10T18:19:03.864Z,102000.19
2022-10-10T18:21:32.066Z,102000.25
2022-10-10T18:24:00.724Z,101999.44
2022-10-10T18:26:30.635Z,102014.41
2022-10-10T18:28:58.641Z,102011.88
2022-10-10T18:31:33.616Z,102010.19
2022-10-10T18:34:02.861Z,102019.91
2022-10-10T18:36:34.687Z,102021.75
2022-10-10T18:39:09.552Z,102020.06
2022-10-10T18:41:36.968Z,102028.03
2022-10-10T18:44:14.261Z,102028.06
2022-10-10T18:46:41.962Z,102024.63
2022-10-10T18:49:13.457Z,102034.31
2022-10-10T18:51:43.162Z,102043.16
2022-10-10T18:54:16.174Z,102039.66
2022-10-10T18:56:45.813Z,102047.63
2022-10-10T18:59:22.125Z,102049.41
2022-10-10T19:01:52.212Z,102045.06
2022-10-10T19:04:21.632Z,102058.25
2022-10-10T19:06:54.690Z,102059.16
2022-10-10T19:09:25.002Z,102060.94
2022-10-10T19:11:53.346Z,102063.63
2022-10-10T19:14:21.054Z,102070.69
2022-10-10T19:16:48.678Z,102068.97
2022-10-10T19:19:18.900Z,102074.25
2022-10-10T19:21:48.403Z,102073.44
2022-10-10T19:24:20.770Z,102082.22
2022-10-10T19:26:56.736Z,102074.38
2022-10-10T19:29:26.248Z,102089.31
2022-10-10T19:31:54.187Z,102091.13
2022-10-10T19:34:23.004Z,102092.03
2022-10-10T19:36:50.395Z,102096.44
2022-10-10T19:39:17.841Z,102098.22
2022-10-10T19:41:45.267Z,102105.25
2022-10-10T19:44:12.756Z,102105.31
2022-10-10T19:46:40.166Z,102107.09
2022-10-10T19:49:07.565Z,102111.47
2022-10-10T19:51:37.019Z,102115.88
2022-10-10T19:54:04.459Z,102122.97
2022-10-10T19:56:31.870Z,102122.97
2022-10-10T19:59:04.196Z,102123.88
2022-10-10T20:01:31.759Z,102126.53
2022-10-10T20:03:59.366Z,102135.34
2022-10-10T20:06:28.422Z,102140.59
2022-10-10T20:08:56.126Z,102147.66
2022-10-10T20:11:26.171Z,102152.91
2022-10-10T20:13:55.229Z,102151.16
2022-10-10T20:16:23.902Z,102155.59
2022-10-10T20:18:51.628Z,102169.63
2022-10-10T20:21:31.491Z,102168.78
2022-10-10T20:24:03.786Z,102174.94
2022-10-10T20:26:32.142Z,102175.84
2022-10-10T20:29:00.112Z,102173.22
2022-10-10T20:31:31.687Z,102182.91
2022-10-10T20:34:01.609Z,102182.91
2022-10-10T20:36:32.499Z,102185.56
2022-10-10T20:39:06.304Z,102190.84
2022-10-10T20:41:35.896Z,102198.72
2022-10-10T20:44:06.671Z,102200.47
2022-10-10T20:46:37.635Z,102197.88
2022-10-10T20:49:10.319Z,102193.50
2022-10-10T20:51:38.232Z,102206.66
2022-10-10T20:54:07.461Z,102215.41
2022-10-10T20:56:35.684Z,102217.13
2022-10-10T20:59:03.315Z,102208.41
2022-10-10T21:01:31.540Z,102222.41
2022-10-10T21:03:59.747Z,102224.16
2022-10-10T21:06:32.042Z,102214.53
2022-10-10T21:09:03.618Z,102223.28
2022-10-10T21:11:31.014Z,102214.53
2022-10-10T21:14:00.771Z,102221.53
2022-10-10T21:16:37.972Z,102224.16
2022-10-10T21:19:09.245Z,102227.63
2022-10-10T21:21:36.949Z,102239.00
2022-10-10T21:24:07.971Z,102241.63
2022-10-10T21:26:35.362Z,102246.88
2022-10-10T21:29:03.766Z,102249.50
2022-10-10T21:31:37.649Z,102247.75
2022-10-10T21:34:08.621Z,102253.00
2022-10-10T21:36:36.450Z,102253.88
2022-10-10T21:39:06.816Z,102265.22
2022-10-10T21:41:34.923Z,102253.00
2022-10-10T21:44:02.471Z,102253.84
2022-10-10T21:46:36.317Z,102257.38
2022-10-10T21:49:10.880Z,102263.50
2022-10-10T21:51:42.564Z,102269.59
2022-10-10T21:54:10.088Z,102266.97
2022-10-10T21:56:38.577Z,102259.97
2022-10-10T21:59:07.621Z,102264.34
2022-10-10T22:01:37.182Z,102266.97
2022-10-10T22:04:06.002Z,102263.47
2022-10-10T22:06:33.668Z,102271.34
2022-10-10T22:09:02.459Z,102265.19
2022-10-10T22:11:32.889Z,102271.31
2022-10-10T22:14:02.371Z,102275.69
2022-10-10T22:16:32.123Z,102286.16
2022-10-10T22:19:00.757Z,102279.19
2022-10-10T22:21:31.552Z,102284.41
2022-10-10T22:24:06.186Z,102287.03
2022-10-10T22:26:35.094Z,102290.53
2022-10-10T22:29:03.677Z,102287.03
2022-10-10T22:31:31.092Z,102298.38
2022-10-10T22:33:58.530Z,102293.97
2022-10-10T22:36:26.356Z,102299.22
2022-10-10T22:38:53.786Z,102308.84
2022-10-10T22:41:21.620Z,102310.59
2022-10-10T22:43:49.742Z,102306.22
2022-10-10T22:46:17.378Z,102314.94
2022-10-10T22:48:44.892Z,102309.69
2022-10-10T22:51:16.206Z,102314.06
2022-10-10T22:53:46.102Z,102310.56
2022-10-10T22:56:19.088Z,102316.69
2022-10-10T22:58:50.476Z,102309.66
2022-10-10T23:01:22.563Z,102318.38
2022-10-10T23:03:53.257Z,102319.25
2022-10-10T23:06:20.710Z,102312.25
2022-10-10T23:08:48.138Z,102316.59
2022-10-10T23:11:15.787Z,102312.22
2022-10-10T23:13:43.747Z,102313.09
2022-10-10T23:16:12.051Z,102311.34
2022-10-10T23:18:39.449Z,102309.56
2022-10-10T23:21:06.914Z,102312.19
2022-10-10T23:23:34.315Z,102310.41
2022-10-10T23:26:07.040Z,102313.00
2022-10-10T23:28:36.150Z,102320.88
2022-10-10T23:31:09.330Z,102319.09
2022-10-10T23:33:38.662Z,102325.19
2022-10-10T23:36:13.026Z,102323.44
2022-10-10T23:38:41.789Z,102326.94
2022-10-10T23:41:11.449Z,102323.41
2022-10-10T23:43:39.465Z,102325.13
2022-10-10T23:46:08.030Z,102332.09
2022-10-10T23:48:36.795Z,102331.19
2022-10-10T23:51:04.847Z,102326.78
2022-10-10T23:53:32.763Z,102330.28
2022-10-10T23:56:00.159Z,102339.84
2022-10-10T23:58:27.669Z,102344.19
